createdAt,value
2022-09-28T00:08:30.553Z,100
2022-09-28T00:18:31.187Z,100
2022-09-28T00:28:31.926Z,100
2022-09-28T00:38:32.197Z,100
2022-09-28T00:48:32.849Z,100
2022-09-28T00:58:33.329Z,100
2022-09-28T01:08:33.697Z,100
2022-09-28T01:18:34.733Z,100
2022-09-28T01:28:35.784Z,100
2022-09-28T01:38:36.209Z,100
2022-09-28T01:48:36.825Z,100
2022-09-28T01:58:37.563Z,100
2022-09-28T02:08:37.678Z,100
2022-09-28T02:18:38.043Z,100
2022-09-28T02:28:38.310Z,100
2022-09-28T02:38:38.803Z,100
2022-09-28T02:48:43.858Z,100
2022-09-28T02:58:40.197Z,100
2022-09-28T03:08:40.464Z,100
2022-09-28T03:18:40.796Z,100
2022-09-28T03:28:41.054Z,100
2022-09-28T03:38:41.936Z,100
2022-09-28T03:48:42.641Z,100
2022-09-28T03:58:43.610Z,100
2022-09-28T04:08:43.809Z,100
2022-09-28T04:18:44.655Z,100
2022-09-28T04:28:45.578Z,100
2022-09-28T04:38:53.056Z,100
2022-09-28T04:48:46.724Z,100
2022-09-28T04:58:51.860Z,100
2022-09-28T05:08:48.009Z,100
2022-09-28T05:18:48.427Z,100
2022-09-28T05:28:48.611Z,100
2022-09-28T05:38:48.708Z,100
2022-09-28T05:48:49.581Z,100
2022-09-28T05:58:50.520Z,100
2022-09-28T06:08:50.681Z,100
2022-09-28T06:18:50.934Z,100
2022-09-28T06:28:51.383Z,100
2022-09-28T06:38:51.455Z,100
2022-09-28T06:48:51.657Z,100
2022-09-28T06:58:51.777Z,100
2022-09-28T07:18:52.331Z,100
2022-09-28T07:28:52.425Z,100
2022-09-28T07:38:52.551Z,100
2022-09-28T07:48:53.346Z,100
2022-09-28T07:58:53.522Z,100
2022-09-28T08:08:53.718Z,100
2022-09-28T08:18:53.861Z,100
2022-09-28T08:28:53.893Z,100
2022-09-28T08:38:54.147Z,100
2022-09-28T08:49:13.285Z,100
2022-09-28T08:58:55.015Z,100
2022-09-28T09:18:56.046Z,99
2022-09-28T09:28:56.434Z,99
2022-09-28T09:38:56.959Z,98
2022-09-28T09:48:57.583Z,99
2022-09-28T09:58:58.145Z,95
2022-09-28T10:08:58.267Z,94
2022-09-28T10:18:59.159Z,93
2022-09-28T10:28:59.795Z,92
2022-09-28T10:39:00.169Z,90
2022-09-28T10:49:00.808Z,90
2022-09-28T10:59:01.485Z,89
2022-09-28T11:09:02.406Z,88
2022-09-28T11:29:03.483Z,89
2022-09-28T11:39:04.554Z,88
2022-09-28T11:49:05.329Z,88
2022-09-28T12:09:05.589Z,88
2022-09-28T12:19:06.110Z,88
2022-09-28T12:29:07.034Z,88
2022-09-28T12:39:27.411Z,88
2022-09-28T12:59:08.442Z,88
2022-09-28T13:09:09.189Z,88
2022-09-28T13:19:09.914Z,90
2022-09-28T13:19:31.836Z,90
2022-09-28T13:29:16.437Z,91
2022-09-28T13:39:16.640Z,90
2022-09-28T13:49:17.580Z,89
2022-09-28T13:59:18.160Z,88
2022-09-28T14:09:19.066Z,88
2022-09-28T14:19:19.920Z,88
2022-09-28T14:29:20.920Z,88
2022-09-28T14:39:20.907Z,87
2022-09-28T14:49:21.571Z,88
2022-09-28T14:59:21.695Z,88
2022-09-28T15:09:22.110Z,88
2022-09-28T15:19:22.858Z,88
2022-09-28T15:29:23.130Z,88
2022-09-28T15:39:23.597Z,88
2022-09-28T15:49:23.632Z,88
2022-09-28T15:59:24.260Z,88
2022-09-28T16:09:24.273Z,88
2022-09-28T16:19:24.479Z,89
2022-09-28T16:29:24.670Z,90
2022-09-28T16:39:25.341Z,90
2022-09-28T16:49:25.674Z,90
2022-09-28T16:59:26.502Z,90
2022-09-28T17:09:26.916Z,90
2022-09-28T17:19:27.472Z,91
2022-09-28T17:29:27.899Z,91
2022-09-28T17:39:28.513Z,90
2022-09-28T17:49:29.030Z,89
2022-09-28T17:59:29.790Z,89
2022-09-28T18:09:30.094Z,90
2022-09-28T18:19:32.233Z,91
2022-09-28T18:29:33.403Z,92
2022-09-28T18:39:31.826Z,92
2022-09-28T18:49:32.620Z,93
2022-09-28T18:59:33.263Z,94
2022-09-28T19:09:34.008Z,94
2022-09-28T19:19:34.062Z,95
2022-09-28T19:29:34.362Z,96
2022-09-28T19:39:34.866Z,97
2022-09-28T19:49:35.692Z,97
2022-09-28T19:59:36.690Z,98
2022-09-28T20:09:36.929Z,99
2022-09-28T20:19:37.005Z,100
2022-09-28T20:39:40.396Z,100
2022-09-28T20:59:38.938Z,100
2022-09-28T21:19:39.256Z,100
2022-09-28T21:29:39.869Z,100
2022-09-28T21:39:40.242Z,100
2022-09-28T21:49:41.259Z,100
2022-09-28T21:59:42.009Z,100
2022-09-28T22:09:43.065Z,100
2022-09-28T22:19:43.788Z,100
2022-09-28T22:29:44.336Z,100
2022-09-28T22:39:44.785Z,100
2022-09-28T22:49:45.541Z,100
2022-09-28T22:59:46.332Z,100
2022-09-28T23:09:46.757Z,100
2022-09-28T23:19:47.467Z,100
2022-09-28T23:29:47.727Z,100
2022-09-28T23:39:48.682Z,100
2022-09-28T23:49:49.572Z,100
2022-09-28T23:59:49.900Z,100
